sensor_id;sensor_type;location;lat;lon;timestamp;temperature;humidity
74822;DHT22;63353;48.702;8.884;2022-11-20T00:01:18;2.90;99.90
74822;DHT22;63353;48.702;8.884;2022-11-20T00:03:45;2.90;99.90
74822;DHT22;63353;48.702;8.884;2022-11-20T00:06:13;2.90;99.90
74822;DHT22;63353;48.702;8.884;2022-11-20T00:08:39;2.80;99.90
74822;DHT22;63353;48.702;8.884;2022-11-20T00:11:07;2.80;99.90
74822;DHT22;63353;48.702;8.884;2022-11-20T00:13:33;2.80;99.90
74822;DHT22;63353;48.702;8.884;2022-11-20T00:16:01;2.70;99.90
74822;DHT22;63353;48.702;8.884;2022-11-20T00:18:27;2.80;99.90
74822;DHT22;63353;48.702;8.884;2022-11-20T00:20:53;2.70;99.90
74822;DHT22;63353;48.702;8.884;2022-11-20T00:23:19;2.80;99.90
74822;DHT22;63353;48.702;8.884;2022-11-20T00:25:44;2.80;99.90
74822;DHT22;63353;48.702;8.884;2022-11-20T00:28:10;2.80;99.90
74822;DHT22;63353;48.702;8.884;2022-11-20T00:30:35;2.80;99.90
74822;DHT22;63353;48.702;8.884;2022-11-20T00:33:01;2.80;99.90
74822;DHT22;63353;48.702;8.884;2022-11-20T00:35:27;2.80;99.90
74822;DHT22;63353;48.702;8.884;2022-11-20T00:37:52;2.90;99.90
74822;DHT22;63353;48.702;8.884;2022-11-20T00:40:18;2.80;99.90
74822;DHT22;63353;48.702;8.884;2022-11-20T00:42:43;2.80;99.90
74822;DHT22;63353;48.702;8.884;2022-11-20T00:45:09;2.70;99.90
74822;DHT22;63353;48.702;8.884;2022-11-20T00:47:35;2.70;99.90
74822;DHT22;63353;48.702;8.884;2022-11-20T00:50:00;2.80;99.90
74822;DHT22;63353;48.702;8.884;2022-11-20T00:52:26;2.90;99.90
74822;DHT22;63353;48.702;8.884;2022-11-20T00:54:51;3.00;99.90
74822;DHT22;63353;48.702;8.884;2022-11-20T00:57:17;3.00;99.90
74822;DHT22;63353;48.702;8.884;2022-11-20T00:59:43;3.10;99.90
74822;DHT22;63353;48.702;8.884;2022-11-20T01:02:08;3.30;99.90
74822;DHT22;63353;48.702;8.884;2022-11-20T01:04:34;3.40;99.90
74822;DHT22;63353;48.702;8.884;2022-11-20T01:06:59;3.40;99.90
74822;DHT22;63353;48.702;8.884;2022-11-20T01:09:25;3.40;99.90
74822;DHT22;63353;48.702;8.884;2022-11-20T01:11:51;3.40;99.90
74822;DHT22;63353;48.702;8.884;2022-11-20T01:14:19;3.30;99.90
74822;DHT22;63353;48.702;8.884;2022-11-20T01:16:47;3.40;99.90
74822;DHT22;63353;48.702;8.884;2022-11-20T01:19:19;3.20;99.90
74822;DHT22;63353;48.702;8.884;2022-11-20T01:21:47;3.10;99.90
74822;DHT22;63353;48.702;8.884;2022-11-20T01:24:15;3.10;99.90
74822;DHT22;63353;48.702;8.884;2022-11-20T01:26:43;3.10;99.90
74822;DHT22;63353;48.702;8.884;2022-11-20T01:29:14;3.10;99.90
74822;DHT22;63353;48.702;8.884;2022-11-20T01:31:40;3.30;99.90
74822;DHT22;63353;48.702;8.884;2022-11-20T01:34:09;3.00;99.90
74822;DHT22;63353;48.702;8.884;2022-11-20T01:36:36;3.10;99.90
74822;DHT22;63353;48.702;8.884;2022-11-20T01:39:05;3.00;99.90
74822;DHT22;63353;48.702;8.884;2022-11-20T01:41:32;3.00;99.90
74822;DHT22;63353;48.702;8.884;2022-11-20T01:44:20;2.80;99.90
74822;DHT22;63353;48.702;8.884;2022-11-20T01:47:05;2.60;99.90
74822;DHT22;63353;48.702;8.884;2022-11-20T01:49:42;2.60;99.90
74822;DHT22;63353;48.702;8.884;2022-11-20T01:52:22;2.50;99.90
74822;DHT22;63353;48.702;8.884;2022-11-20T01:57:19;2.40;99.90
74822;DHT22;63353;48.702;8.884;2022-11-20T01:59:54;2.50;99.90
74822;DHT22;63353;48.702;8.884;2022-11-20T02:02:21;2.60;99.90
74822;DHT22;63353;48.702;8.884;2022-11-20T02:04:49;2.50;99.90
74822;DHT22;63353;48.702;8.884;2022-11-20T02:07:17;2.60;99.90
74822;DHT22;63353;48.702;8.884;2022-11-20T02:09:44;2.70;99.90
74822;DHT22;63353;48.702;8.884;2022-11-20T02:12:09;2.60;99.90
74822;DHT22;63353;48.702;8.884;2022-11-20T02:14:56;2.80;99.90
74822;DHT22;63353;48.702;8.884;2022-11-20T02:17:23;2.90;99.90
74822;DHT22;63353;48.702;8.884;2022-11-20T02:19:49;2.70;99.90
74822;DHT22;63353;48.702;8.884;2022-11-20T02:22:26;2.70;99.90
74822;DHT22;63353;48.702;8.884;2022-11-20T02:24:54;2.60;99.90
74822;DHT22;63353;48.702;8.884;2022-11-20T02:27:20;2.70;99.90
74822;DHT22;63353;48.702;8.884;2022-11-20T02:29:52;2.70;99.90
74822;DHT22;63353;48.702;8.884;2022-11-20T02:34:52;2.70;99.90
74822;DHT22;63353;48.702;8.884;2022-11-20T02:37:19;2.70;99.90
74822;DHT22;63353;48.702;8.884;2022-11-20T02:39:47;2.60;99.90
74822;DHT22;63353;48.702;8.884;2022-11-20T02:42:13;2.60;99.90
74822;DHT22;63353;48.702;8.884;2022-11-20T02:44:39;2.60;99.90
74822;DHT22;63353;48.702;8.884;2022-11-20T02:47:04;2.50;99.90
74822;DHT22;63353;48.702;8.884;2022-11-20T02:49:30;2.50;99.90
74822;DHT22;63353;48.702;8.884;2022-11-20T02:51:56;2.50;99.90
74822;DHT22;63353;48.702;8.884;2022-11-20T02:54:22;2.50;99.90
74822;DHT22;63353;48.702;8.884;2022-11-20T02:56:48;2.40;99.90
74822;DHT22;63353;48.702;8.884;2022-11-20T02:59:14;2.30;99.90
74822;DHT22;63353;48.702;8.884;2022-11-20T03:01:39;2.20;99.90
74822;DHT22;63353;48.702;8.884;2022-11-20T03:04:05;2.30;99.90
74822;DHT22;63353;48.702;8.884;2022-11-20T03:06:31;2.20;99.90
74822;DHT22;63353;48.702;8.884;2022-11-20T03:08:56;2.10;99.90
74822;DHT22;63353;48.702;8.884;2022-11-20T03:11:22;2.00;99.90
74822;DHT22;63353;48.702;8.884;2022-11-20T03:13:48;1.90;99.90
74822;DHT22;63353;48.702;8.884;2022-11-20T03:16:16;1.70;99.90
74822;DHT22;63353;48.702;8.884;2022-11-20T03:18:42;1.70;99.90
74822;DHT22;63353;48.702;8.884;2022-11-20T03:21:09;1.60;99.90
74822;DHT22;63353;48.702;8.884;2022-11-20T03:23:36;1.50;99.90
74822;DHT22;63353;48.702;8.884;2022-11-20T03:26:16;1.50;99.90
74822;DHT22;63353;48.702;8.884;2022-11-20T03:28:46;1.60;99.90
74822;DHT22;63353;48.702;8.884;2022-11-20T03:31:14;1.60;99.90
74822;DHT22;63353;48.702;8.884;2022-11-20T03:33:41;1.60;99.90
74822;DHT22;63353;48.702;8.884;2022-11-20T03:36:10;1.60;99.90
74822;DHT22;63353;48.702;8.884;2022-11-20T03:38:36;1.60;99.90
74822;DHT22;63353;48.702;8.884;2022-11-20T03:41:04;1.60;99.90
74822;DHT22;63353;48.702;8.884;2022-11-20T03:43:30;1.50;99.90
74822;DHT22;63353;48.702;8.884;2022-11-20T03:45:56;1.50;99.90
74822;DHT22;63353;48.702;8.884;2022-11-20T03:48:22;1.60;99.90
74822;DHT22;63353;48.702;8.884;2022-11-20T03:50:47;1.50;99.90
74822;DHT22;63353;48.702;8.884;2022-11-20T03:53:16;1.70;99.90
74822;DHT22;63353;48.702;8.884;2022-11-20T03:55:42;1.70;99.90
74822;DHT22;63353;48.702;8.884;2022-11-20T03:58:09;1.80;99.90
74822;DHT22;63353;48.702;8.884;2022-11-20T04:00:35;1.80;99.90
74822;DHT22;63353;48.702;8.884;2022-11-20T04:03:01;1.90;99.90
74822;DHT22;63353;48.702;8.884;2022-11-20T04:05:27;1.90;99.90
74822;DHT22;63353;48.702;8.884;2022-11-20T04:07:53;1.80;99.90
74822;DHT22;63353;48.702;8.884;2022-11-20T04:10:19;2.00;99.90
74822;DHT22;63353;48.702;8.884;2022-11-20T04:12:44;2.00;99.90
74822;DHT22;63353;48.702;8.884;2022-11-20T04:15:10;2.00;99.90
74822;DHT22;63353;48.702;8.884;2022-11-20T04:17:36;2.10;99.90
74822;DHT22;63353;48.702;8.884;2022-11-20T04:20:02;2.20;99.90
74822;DHT22;63353;48.702;8.884;2022-11-20T04:22:28;2.30;99.90
74822;DHT22;63353;48.702;8.884;2022-11-20T04:24:53;2.30;99.90
74822;DHT22;63353;48.702;8.884;2022-11-20T04:27:19;2.30;99.90
74822;DHT22;63353;48.702;8.884;2022-11-20T04:29:44;2.20;99.90
74822;DHT22;63353;48.702;8.884;2022-11-20T04:32:10;2.30;99.90
74822;DHT22;63353;48.702;8.884;2022-11-20T04:34:36;2.30;99.90
74822;DHT22;63353;48.702;8.884;2022-11-20T04:37:01;2.40;99.90
74822;DHT22;63353;48.702;8.884;2022-11-20T04:39:27;2.30;99.90
74822;DHT22;63353;48.702;8.884;2022-11-20T04:41:52;2.20;99.90
74822;DHT22;63353;48.702;8.884;2022-11-20T04:44:38;2.30;99.90
74822;DHT22;63353;48.702;8.884;2022-11-20T04:47:04;2.40;99.90
74822;DHT22;63353;48.702;8.884;2022-11-20T04:49:30;2.50;99.90
74822;DHT22;63353;48.702;8.884;2022-11-20T04:51:57;2.50;99.90
74822;DHT22;63353;48.702;8.884;2022-11-20T04:54:23;2.60;99.90
74822;DHT22;63353;48.702;8.884;2022-11-20T04:56:49;2.50;99.90
74822;DHT22;63353;48.702;8.884;2022-11-20T04:59:15;2.50;99.90
74822;DHT22;63353;48.702;8.884;2022-11-20T05:01:40;2.50;99.90
74822;DHT22;63353;48.702;8.884;2022-11-20T05:04:06;2.60;99.90
74822;DHT22;63353;48.702;8.884;2022-11-20T05:06:32;2.50;99.90
74822;DHT22;63353;48.702;8.884;2022-11-20T05:08:58;2.60;99.90
74822;DHT22;63353;48.702;8.884;2022-11-20T05:11:24;2.60;99.90
74822;DHT22;63353;48.702;8.884;2022-11-20T05:13:51;2.70;99.90
74822;DHT22;63353;48.702;8.884;2022-11-20T05:16:22;2.80;99.90
74822;DHT22;63353;48.702;8.884;2022-11-20T05:18:48;2.80;99.90
74822;DHT22;63353;48.702;8.884;2022-11-20T05:21:14;2.80;99.90
74822;DHT22;63353;48.702;8.884;2022-11-20T05:23:41;2.80;99.90
74822;DHT22;63353;48.702;8.884;2022-11-20T05:26:12;3.00;99.90
74822;DHT22;63353;48.702;8.884;2022-11-20T05:28:38;2.90;99.90
74822;DHT22;63353;48.702;8.884;2022-11-20T05:31:08;2.90;99.90
74822;DHT22;63353;48.702;8.884;2022-11-20T05:33:39;2.90;99.90
74822;DHT22;63353;48.702;8.884;2022-11-20T05:36:05;3.00;99.90
74822;DHT22;63353;48.702;8.884;2022-11-20T05:38:32;3.00;99.90
74822;DHT22;63353;48.702;8.884;2022-11-20T05:41:06;3.20;99.90
74822;DHT22;63353;48.702;8.884;2022-11-20T05:43:33;3.20;99.90
74822;DHT22;63353;48.702;8.884;2022-11-20T05:45:59;3.10;99.90
74822;DHT22;63353;48.702;8.884;2022-11-20T05:48:24;3.20;99.90
74822;DHT22;63353;48.702;8.884;2022-11-20T05:50:50;3.40;99.90
74822;DHT22;63353;48.702;8.884;2022-11-20T05:53:16;3.50;99.90
74822;DHT22;63353;48.702;8.884;2022-11-20T05:55:42;3.70;99.90
74822;DHT22;63353;48.702;8.884;2022-11-20T05:58:07;3.60;99.90
74822;DHT22;63353;48.702;8.884;2022-11-20T06:00:33;3.80;99.90
74822;DHT22;63353;48.702;8.884;2022-11-20T06:02:59;4.00;99.90
74822;DHT22;63353;48.702;8.884;2022-11-20T06:05:24;4.10;99.90
74822;DHT22;63353;48.702;8.884;2022-11-20T06:07:50;4.10;99.90
74822;DHT22;63353;48.702;8.884;2022-11-20T06:10:15;4.10;99.90
74822;DHT22;63353;48.702;8.884;2022-11-20T06:12:41;4.10;99.90
74822;DHT22;63353;48.702;8.884;2022-11-20T06:15:07;4.20;99.90
74822;DHT22;63353;48.702;8.884;2022-11-20T06:17:33;4.20;99.90
74822;DHT22;63353;48.702;8.884;2022-11-20T06:19:58;4.20;99.90
74822;DHT22;63353;48.702;8.884;2022-11-20T06:22:24;4.20;99.90
74822;DHT22;63353;48.702;8.884;2022-11-20T06:24:49;4.00;99.90
74822;DHT22;63353;48.702;8.884;2022-11-20T06:27:15;4.10;99.90
74822;DHT22;63353;48.702;8.884;2022-11-20T06:29:41;4.10;99.90
74822;DHT22;63353;48.702;8.884;2022-11-20T06:32:07;4.20;99.90
74822;DHT22;63353;48.702;8.884;2022-11-20T06:34:32;4.10;99.90
74822;DHT22;63353;48.702;8.884;2022-11-20T06:36:58;4.10;99.90
74822;DHT22;63353;48.702;8.884;2022-11-20T06:39:24;4.10;99.90
74822;DHT22;63353;48.702;8.884;2022-11-20T06:41:49;4.10;99.90
74822;DHT22;63353;48.702;8.884;2022-11-20T06:44:15;4.10;99.90
74822;DHT22;63353;48.702;8.884;2022-11-20T06:46:40;4.20;99.90
74822;DHT22;63353;48.702;8.884;2022-11-20T06:49:06;4.10;99.90
74822;DHT22;63353;48.702;8.884;2022-11-20T06:51:32;4.10;99.90
74822;DHT22;63353;48.702;8.884;2022-11-20T06:53:57;4.10;99.90
74822;DHT22;63353;48.702;8.884;2022-11-20T06:56:23;4.00;99.90
74822;DHT22;63353;48.702;8.884;2022-11-20T06:58:49;4.10;99.90
74822;DHT22;63353;48.702;8.884;2022-11-20T07:01:15;4.10;99.90
74822;DHT22;63353;48.702;8.884;2022-11-20T07:03:41;4.10;99.90
74822;DHT22;63353;48.702;8.884;2022-11-20T07:06:08;4.20;99.90
74822;DHT22;63353;48.702;8.884;2022-11-20T07:08:34;4.30;99.90
74822;DHT22;63353;48.702;8.884;2022-11-20T07:11:02;4.20;99.90
74822;DHT22;63353;48.702;8.884;2022-11-20T07:13:28;4.10;99.90
74822;DHT22;63353;48.702;8.884;2022-11-20T07:15:55;4.10;99.90
74822;DHT22;63353;48.702;8.884;2022-11-20T07:18:20;4.10;99.90
74822;DHT22;63353;48.702;8.884;2022-11-20T07:20:46;4.30;99.90
74822;DHT22;63353;48.702;8.884;2022-11-20T07:23:12;4.30;99.90
74822;DHT22;63353;48.702;8.884;2022-11-20T07:25:37;4.40;99.90
74822;DHT22;63353;48.702;8.884;2022-11-20T07:28:03;4.30;99.90
74822;DHT22;63353;48.702;8.884;2022-11-20T07:30:30;4.40;99.90
74822;DHT22;63353;48.702;8.884;2022-11-20T07:32:56;4.40;99.90
74822;DHT22;63353;48.702;8.884;2022-11-20T07:35:25;4.50;99.90
74822;DHT22;63353;48.702;8.884;2022-11-20T07:37:51;4.40;99.90
74822;DHT22;63353;48.702;8.884;2022-11-20T07:40:17;4.50;99.90
74822;DHT22;63353;48.702;8.884;2022-11-20T07:42:53;4.60;99.90
74822;DHT22;63353;48.702;8.884;2022-11-20T07:45:20;4.60;99.90
74822;DHT22;63353;48.702;8.884;2022-11-20T07:47:46;4.50;99.90
74822;DHT22;63353;48.702;8.884;2022-11-20T07:50:12;4.60;99.90
74822;DHT22;63353;48.702;8.884;2022-11-20T07:52:39;4.60;99.90
74822;DHT22;63353;48.702;8.884;2022-11-20T07:55:06;4.60;99.90
74822;DHT22;63353;48.702;8.884;2022-11-20T07:57:31;4.60;99.90
74822;DHT22;63353;48.702;8.884;2022-11-20T07:59:57;4.70;99.90
74822;DHT22;63353;48.702;8.884;2022-11-20T08:02:23;4.70;99.90
74822;DHT22;63353;48.702;8.884;2022-11-20T08:04:48;4.70;99.90
74822;DHT22;63353;48.702;8.884;2022-11-20T08:07:14;4.70;99.90
74822;DHT22;63353;48.702;8.884;2022-11-20T08:09:40;4.70;99.90
74822;DHT22;63353;48.702;8.884;2022-11-20T08:12:05;4.70;99.90
74822;DHT22;63353;48.702;8.884;2022-11-20T08:14:50;4.70;99.90
74822;DHT22;63353;48.702;8.884;2022-11-20T08:17:15;4.70;99.90
74822;DHT22;63353;48.702;8.884;2022-11-20T08:19:41;4.80;99.90
74822;DHT22;63353;48.702;8.884;2022-11-20T08:22:07;4.80;99.90
74822;DHT22;63353;48.702;8.884;2022-11-20T08:24:32;4.80;99.90
74822;DHT22;63353;48.702;8.884;2022-11-20T08:26:58;4.90;99.90
74822;DHT22;63353;48.702;8.884;2022-11-20T08:29:25;5.00;99.90
74822;DHT22;63353;48.702;8.884;2022-11-20T08:31:51;5.10;99.90
74822;DHT22;63353;48.702;8.884;2022-11-20T08:34:17;5.20;99.90
74822;DHT22;63353;48.702;8.884;2022-11-20T08:36:42;5.20;99.90
74822;DHT22;63353;48.702;8.884;2022-11-20T08:39:11;5.20;99.90
74822;DHT22;63353;48.702;8.884;2022-11-20T08:41:37;5.20;99.90
74822;DHT22;63353;48.702;8.884;2022-11-20T08:44:04;5.30;99.90
74822;DHT22;63353;48.702;8.884;2022-11-20T08:46:34;5.30;99.90
74822;DHT22;63353;48.702;8.884;2022-11-20T08:49:01;5.30;99.90
74822;DHT22;63353;48.702;8.884;2022-11-20T08:51:27;5.30;99.90
74822;DHT22;63353;48.702;8.884;2022-11-20T08:53:53;5.30;99.90
74822;DHT22;63353;48.702;8.884;2022-11-20T08:56:18;5.30;99.90
74822;DHT22;63353;48.702;8.884;2022-11-20T08:58:44;5.30;99.90
74822;DHT22;63353;48.702;8.884;2022-11-20T09:01:10;5.30;99.90
74822;DHT22;63353;48.702;8.884;2022-11-20T09:03:36;5.20;99.90
74822;DHT22;63353;48.702;8.884;2022-11-20T09:06:06;5.30;99.90
74822;DHT22;63353;48.702;8.884;2022-11-20T09:08:32;5.30;99.90
74822;DHT22;63353;48.702;8.884;2022-11-20T09:10:59;5.30;99.90
74822;DHT22;63353;48.702;8.884;2022-11-20T09:13:26;5.30;99.90
74822;DHT22;63353;48.702;8.884;2022-11-20T09:15:57;5.20;99.90
74822;DHT22;63353;48.702;8.884;2022-11-20T09:18:24;5.20;99.90
74822;DHT22;63353;48.702;8.884;2022-11-20T09:20:50;5.20;99.90
74822;DHT22;63353;48.702;8.884;2022-11-20T09:23:16;5.20;99.90
74822;DHT22;63353;48.702;8.884;2022-11-20T09:25:42;5.10;99.90
74822;DHT22;63353;48.702;8.884;2022-11-20T09:28:08;5.00;99.90
74822;DHT22;63353;48.702;8.884;2022-11-20T09:30:34;5.10;99.90
74822;DHT22;63353;48.702;8.884;2022-11-20T09:32:59;5.00;99.90
74822;DHT22;63353;48.702;8.884;2022-11-20T09:35:25;5.10;99.90
74822;DHT22;63353;48.702;8.884;2022-11-20T09:37:51;5.10;99.90
74822;DHT22;63353;48.702;8.884;2022-11-20T09:40:25;5.00;99.90
74822;DHT22;63353;48.702;8.884;2022-11-20T09:50:34;5.00;99.90
74822;DHT22;63353;48.702;8.884;2022-11-20T09:53:35;5.10;99.90
74822;DHT22;63353;48.702;8.884;2022-11-20T09:56:01;5.10;99.90
74822;DHT22;63353;48.702;8.884;2022-11-20T09:58:39;5.10;99.90
74822;DHT22;63353;48.702;8.884;2022-11-20T10:01:14;5.10;99.90
74822;DHT22;63353;48.702;8.884;2022-11-20T10:06:27;5.20;99.90
74822;DHT22;63353;48.702;8.884;2022-11-20T10:09:11;5.20;99.90
74822;DHT22;63353;48.702;8.884;2022-11-20T10:11:51;5.20;99.90
74822;DHT22;63353;48.702;8.884;2022-11-20T10:23:01;5.30;99.90
74822;DHT22;63353;48.702;8.884;2022-11-20T10:26:01;5.40;99.90
74822;DHT22;63353;48.702;8.884;2022-11-20T10:33:59;5.40;99.90
74822;DHT22;63353;48.702;8.884;2022-11-20T10:36:33;5.30;99.90
74822;DHT22;63353;48.702;8.884;2022-11-20T10:39:13;5.30;99.90
74822;DHT22;63353;48.702;8.884;2022-11-20T10:41:42;5.20;99.90
74822;DHT22;63353;48.702;8.884;2022-11-20T10:44:20;5.30;99.90
74822;DHT22;63353;48.702;8.884;2022-11-20T10:47:08;5.20;99.90
74822;DHT22;63353;48.702;8.884;2022-11-20T10:49:35;5.30;99.90
74822;DHT22;63353;48.702;8.884;2022-11-20T10:52:13;5.40;99.90
74822;DHT22;63353;48.702;8.884;2022-11-20T11:00:10;5.70;99.90
74822;DHT22;63353;48.702;8.884;2022-11-20T11:02:43;5.80;99.90
74822;DHT22;63353;48.702;8.884;2022-11-20T11:07:44;6.10;99.90
74822;DHT22;63353;48.702;8.884;2022-11-20T11:10:17;6.30;99.90
74822;DHT22;63353;48.702;8.884;2022-11-20T11:12:45;6.50;99.90
74822;DHT22;63353;48.702;8.884;2022-11-20T11:17:51;6.40;99.90
74822;DHT22;63353;48.702;8.884;2022-11-20T11:20:19;6.10;99.90
74822;DHT22;63353;48.702;8.884;2022-11-20T11:22:54;6.10;99.90
74822;DHT22;63353;48.702;8.884;2022-11-20T11:25:27;6.30;99.90
74822;DHT22;63353;48.702;8.884;2022-11-20T11:27:55;6.60;99.90
74822;DHT22;63353;48.702;8.884;2022-11-20T11:30:22;6.80;99.90
74822;DHT22;63353;48.702;8.884;2022-11-20T11:32:48;7.10;99.90
74822;DHT22;63353;48.702;8.884;2022-11-20T11:35:21;7.10;99.90
74822;DHT22;63353;48.702;8.884;2022-11-20T11:37:47;7.10;99.90
74822;DHT22;63353;48.702;8.884;2022-11-20T11:40:15;7.30;99.90
74822;DHT22;63353;48.702;8.884;2022-11-20T11:42:52;7.30;99.90
74822;DHT22;63353;48.702;8.884;2022-11-20T11:45:19;7.50;99.90
74822;DHT22;63353;48.702;8.884;2022-11-20T11:47:47;7.50;99.90
74822;DHT22;63353;48.702;8.884;2022-11-20T11:50:27;7.50;99.90
74822;DHT22;63353;48.702;8.884;2022-11-20T11:58:49;7.60;99.90
74822;DHT22;63353;48.702;8.884;2022-11-20T12:06:49;7.60;99.90
74822;DHT22;63353;48.702;8.884;2022-11-20T12:09:18;7.50;99.90
74822;DHT22;63353;48.702;8.884;2022-11-20T12:12:01;7.60;99.90
74822;DHT22;63353;48.702;8.884;2022-11-20T12:14:38;7.60;99.90
74822;DHT22;63353;48.702;8.884;2022-11-20T12:17:11;7.90;99.90
74822;DHT22;63353;48.702;8.884;2022-11-20T12:19:37;7.80;99.90
74822;DHT22;63353;48.702;8.884;2022-11-20T12:25:22;7.60;99.90
74822;DHT22;63353;48.702;8.884;2022-11-20T12:30:40;7.70;99.90
74822;DHT22;63353;48.702;8.884;2022-11-20T12:33:41;7.50;99.90
74822;DHT22;63353;48.702;8.884;2022-11-20T12:36:49;7.80;99.90
74822;DHT22;63353;48.702;8.884;2022-11-20T12:39:42;8.00;99.90
74822;DHT22;63353;48.702;8.884;2022-11-20T12:56:55;8.10;99.90
74822;DHT22;63353;48.702;8.884;2022-11-20T12:59:47;7.70;99.90
74822;DHT22;63353;48.702;8.884;2022-11-20T13:05:35;7.20;99.90
74822;DHT22;63353;48.702;8.884;2022-11-20T13:08:02;7.00;99.90
74822;DHT22;63353;48.702;8.884;2022-11-20T13:10:58;6.90;99.90
74822;DHT22;63353;48.702;8.884;2022-11-20T13:16:22;7.00;99.90
74822;DHT22;63353;48.702;8.884;2022-11-20T13:18:50;7.10;99.90
74822;DHT22;63353;48.702;8.884;2022-11-20T13:21:19;7.00;99.90
74822;DHT22;63353;48.702;8.884;2022-11-20T13:23:46;6.90;99.90
74822;DHT22;63353;48.702;8.884;2022-11-20T13:26:21;6.90;99.90
74822;DHT22;63353;48.702;8.884;2022-11-20T13:28:59;6.80;99.90
74822;DHT22;63353;48.702;8.884;2022-11-20T13:31:33;6.60;99.90
74822;DHT22;63353;48.702;8.884;2022-11-20T13:34:03;6.40;99.90
74822;DHT22;63353;48.702;8.884;2022-11-20T13:36:29;6.30;99.90
74822;DHT22;63353;48.702;8.884;2022-11-20T13:38:56;6.40;99.90
74822;DHT22;63353;48.702;8.884;2022-11-20T13:41:28;6.40;99.90
74822;DHT22;63353;48.702;8.884;2022-11-20T13:43:57;6.60;99.90
74822;DHT22;63353;48.702;8.884;2022-11-20T13:46:23;6.70;99.90
74822;DHT22;63353;48.702;8.884;2022-11-20T13:48:51;6.80;99.90
74822;DHT22;63353;48.702;8.884;2022-11-20T14:01:24;6.70;99.90
74822;DHT22;63353;48.702;8.884;2022-11-20T14:03:51;6.60;99.90
74822;DHT22;63353;48.702;8.884;2022-11-20T14:06:30;6.60;99.90
74822;DHT22;63353;48.702;8.884;2022-11-20T14:08:57;6.60;99.90
74822;DHT22;63353;48.702;8.884;2022-11-20T14:11:24;6.60;99.90
74822;DHT22;63353;48.702;8.884;2022-11-20T14:14:15;6.60;99.90
74822;DHT22;63353;48.702;8.884;2022-11-20T14:16:43;6.70;99.90
74822;DHT22;63353;48.702;8.884;2022-11-20T14:22:07;6.50;99.90
74822;DHT22;63353;48.702;8.884;2022-11-20T14:24:33;6.30;99.90
74822;DHT22;63353;48.702;8.884;2022-11-20T14:26:59;6.40;99.90
74822;DHT22;63353;48.702;8.884;2022-11-20T14:29:33;6.50;99.90
74822;DHT22;63353;48.702;8.884;2022-11-20T14:32:01;6.20;99.90
74822;DHT22;63353;48.702;8.884;2022-11-20T14:34:33;6.20;99.90
74822;DHT22;63353;48.702;8.884;2022-11-20T14:37:04;6.20;99.90
74822;DHT22;63353;48.702;8.884;2022-11-20T14:39:37;6.20;99.90
74822;DHT22;63353;48.702;8.884;2022-11-20T14:42:20;6.10;99.90
74822;DHT22;63353;48.702;8.884;2022-11-20T14:44:48;6.20;99.90
74822;DHT22;63353;48.702;8.884;2022-11-20T14:47:35;6.30;99.90
74822;DHT22;63353;48.702;8.884;2022-11-20T14:50:01;6.30;99.90
74822;DHT22;63353;48.702;8.884;2022-11-20T14:52:28;6.30;99.90
74822;DHT22;63353;48.702;8.884;2022-11-20T14:54:58;6.30;99.90
74822;DHT22;63353;48.702;8.884;2022-11-20T15:02:32;6.40;99.90
74822;DHT22;63353;48.702;8.884;2022-11-20T15:04:59;6.30;99.90
74822;DHT22;63353;48.702;8.884;2022-11-20T15:07:26;6.10;99.90
74822;DHT22;63353;48.702;8.884;2022-11-20T15:10:06;6.00;99.90
74822;DHT22;63353;48.702;8.884;2022-11-20T15:12:35;5.90;99.90
74822;DHT22;63353;48.702;8.884;2022-11-20T15:15:02;5.80;99.90
74822;DHT22;63353;48.702;8.884;2022-11-20T15:17:29;5.70;99.90
74822;DHT22;63353;48.702;8.884;2022-11-20T15:19:55;5.80;99.90
74822;DHT22;63353;48.702;8.884;2022-11-20T15:22:21;5.60;99.90
74822;DHT22;63353;48.702;8.884;2022-11-20T15:24:47;5.50;99.90
74822;DHT22;63353;48.702;8.884;2022-11-20T15:27:12;5.30;99.90
74822;DHT22;63353;48.702;8.884;2022-11-20T15:29:38;5.10;99.90
74822;DHT22;63353;48.702;8.884;2022-11-20T15:32:04;5.10;99.90
74822;DHT22;63353;48.702;8.884;2022-11-20T15:34:29;5.10;99.90
74822;DHT22;63353;48.702;8.884;2022-11-20T15:36:55;5.10;99.90
74822;DHT22;63353;48.702;8.884;2022-11-20T15:39:21;4.90;99.90
74822;DHT22;63353;48.702;8.884;2022-11-20T15:41:46;4.80;99.90
74822;DHT22;63353;48.702;8.884;2022-11-20T15:44:12;4.70;99.90
74822;DHT22;63353;48.702;8.884;2022-11-20T15:46:40;4.70;99.90
74822;DHT22;63353;48.702;8.884;2022-11-20T15:49:15;4.80;99.90
74822;DHT22;63353;48.702;8.884;2022-11-20T15:51:43;4.70;99.90
74822;DHT22;63353;48.702;8.884;2022-11-20T15:54:14;4.70;99.90
74822;DHT22;63353;48.702;8.884;2022-11-20T15:56:40;4.70;99.90
74822;DHT22;63353;48.702;8.884;2022-11-20T15:59:05;4.60;99.90
74822;DHT22;63353;48.702;8.884;2022-11-20T16:01:31;4.50;99.90
74822;DHT22;63353;48.702;8.884;2022-11-20T16:03:57;4.70;99.90
74822;DHT22;63353;48.702;8.884;2022-11-20T16:06:22;4.60;99.90
74822;DHT22;63353;48.702;8.884;2022-11-20T16:08:48;4.50;99.90
74822;DHT22;63353;48.702;8.884;2022-11-20T16:11:15;4.70;99.90
74822;DHT22;63353;48.702;8.884;2022-11-20T16:13:42;4.50;99.90
74822;DHT22;63353;48.702;8.884;2022-11-20T16:16:35;4.50;99.90
74822;DHT22;63353;48.702;8.884;2022-11-20T16:19:01;4.50;99.90
74822;DHT22;63353;48.702;8.884;2022-11-20T16:21:27;4.40;99.90
74822;DHT22;63353;48.702;8.884;2022-11-20T16:23:58;4.40;99.90
74822;DHT22;63353;48.702;8.884;2022-11-20T16:26:24;4.60;99.90
74822;DHT22;63353;48.702;8.884;2022-11-20T16:28:49;4.50;99.90
74822;DHT22;63353;48.702;8.884;2022-11-20T16:31:16;4.60;99.90
74822;DHT22;63353;48.702;8.884;2022-11-20T16:33:42;4.70;99.90
74822;DHT22;63353;48.702;8.884;2022-11-20T16:36:13;4.70;99.90
74822;DHT22;63353;48.702;8.884;2022-11-20T16:38:39;4.80;99.90
74822;DHT22;63353;48.702;8.884;2022-11-20T16:41:06;4.80;99.90
74822;DHT22;63353;48.702;8.884;2022-11-20T16:43:47;4.80;99.90
74822;DHT22;63353;48.702;8.884;2022-11-20T16:46:14;4.90;99.90
74822;DHT22;63353;48.702;8.884;2022-11-20T16:48:39;4.90;99.90
74822;DHT22;63353;48.702;8.884;2022-11-20T16:51:08;4.90;99.90
74822;DHT22;63353;48.702;8.884;2022-11-20T16:53:34;5.00;99.90
74822;DHT22;63353;48.702;8.884;2022-11-20T16:56:14;5.00;99.90
74822;DHT22;63353;48.702;8.884;2022-11-20T16:58:44;5.00;99.90
74822;DHT22;63353;48.702;8.884;2022-11-20T17:01:12;5.00;99.90
74822;DHT22;63353;48.702;8.884;2022-11-20T17:03:40;4.90;99.90
74822;DHT22;63353;48.702;8.884;2022-11-20T17:06:27;4.90;99.90
74822;DHT22;63353;48.702;8.884;2022-11-20T17:08:54;5.00;99.90
74822;DHT22;63353;48.702;8.884;2022-11-20T17:11:20;5.00;99.90
74822;DHT22;63353;48.702;8.884;2022-11-20T17:13:46;5.00;99.90
74822;DHT22;63353;48.702;8.884;2022-11-20T17:16:22;5.00;99.90
74822;DHT22;63353;48.702;8.884;2022-11-20T17:18:47;4.90;99.90
74822;DHT22;63353;48.702;8.884;2022-11-20T17:21:17;5.00;99.90
74822;DHT22;63353;48.702;8.884;2022-11-20T17:23:44;5.00;99.90
74822;DHT22;63353;48.702;8.884;2022-11-20T17:26:21;4.90;99.90
74822;DHT22;63353;48.702;8.884;2022-11-20T17:28:58;4.90;99.90
74822;DHT22;63353;48.702;8.884;2022-11-20T17:31:25;5.00;99.90